Share

Big Bend National Park, TX

4:15 PM CDT on April 23, 2014 (GMT -0500)
Presidio Lely Intl, Presidio, (KPRS) Elev 2940 ft | 29.63 °N, 104.36 °W | Change Station

Current weather conditions updated 20 minutes ago

Clear
Clear
93 °F
Feels Like 93 °F
N
15
Wind Variable Wind from SW
Sunrise 7:18 AM
Sunset 8:24 PM
Moon Waning Crescent

Tomorrow is forecast to be Much Cooler than today.

Pressure 29.74 in
Visibility 10.0 miles
Clouds Clear
Dew Point 17 °F
Humidity 6%
Rainfall 0.00 in
Snow Depth Not available.
UV 10 out of 16
Pollen 8.10 out of 12
Air Quality Not available.
Flu Activity Local Activity
METAR KPRS 232055Z AUTO 22013KT 10SM CLR 34/M08 A2974 RMK AO2 T03411081

More Conditions Fewer Conditions

Pressure 29.74 in
Visibility 10.0 miles
Clouds Clear
Dew Point 17 °F
Humidity 6%
Rainfall 0.00 in
Snow Depth Not available.
UV 10 out of 16
Pollen 8.10 out of 12
Air Quality Not available.
Flu Activity Local Activity
METAR KPRS 232055Z AUTO 22013KT 10SM CLR 34/M08 A2974 RMK AO2 T03411081

More Conditions Fewer Conditions

10-Day Weather Forecast

Almanac

Astronomy

Apr. 23, 2014 Rise Set
Actual Time 7:18 AM CDT 8:24 PM CDT
Civil Twilight 6:53 AM CDT 8:48 PM CDT
Nautical Twilight 6:24 AM CDT 9:18 PM CDT
Astronomical Twilight 5:54 AM CDT 9:48 PM CDT
Moon 3:23 AM CDT 3:01 PM CDT
Length of Visible Light 13h 55m
Length of Day
13h 05m
Tomorrow will be 1m 35s longer.
Waning Crescent, 33% of the Moon is Illuminated
Today
Waning Crescent
Apr 29
New
May 6
First Quarter
May 14
Full
May 21
Last Quarter

Today's Extremes

State Highs State Lows

Community

  • Stunning Sunrise
    Stunning Sunrise
  • spring flowers
    spring flowers
  • Earth Day Spectrum Ove' Blue
    Earth Day Spectrum Ove' Blue
  • BARN B&W
    BARN B&W
  • April Sunset
    April Sunset

WunderPhotos

Upload Photos

1,704,412 photos uploaded!

WunderBlogs® & News

Nearby

Snow Depth

Station Depth Elevation
No new snow has been reported.

Coastal Water Temperatures

Place Temperature
No Stations Reporting

Earthquake Activity

City Distance Mag. Time & Date
No recent earthquake activity has been reported nearby.
Minimum magnitude displayed is 2.5.

Nearby Weather Stations

Station Location Temp. Heat Index Dew Point Humidity Wind Precip. Elev Updated Type
CRN BIG BEND PARK PANTHER JUNCTN 2N TX , Big Bend National Park, TX 91 °F 87 °F - - North  at  - 0.00 in / hr 3494 ft 3:05 PM CDT MADIS
Terlingua Ranch, Alpine, TX 89.0 °F 86 °F - - SW  at  31.5 mph 0.00 in / hr 3497 ft 4:15 PM CDT Rapid Fire
RAWS CHISOS BASIN TX, Big Bend National Park, TX 84 °F 81 °F 33 °F 16% West  at  7 mph 0.00 in / hr 5399 ft 2:53 PM CDT MADIS
RAWS BIG BEND QD #1 TX, Big Bend National Park, TX 99 °F 95 °F 41 °F 14% North  at  0 mph 0.00 in / hr 1899 ft 2:50 PM CDT MADIS

Show More Stations Show Fewer Stations

What do you think?

We're not finished. Please let us know what you like, what you don't like, and what you are still missing.